Time;durP1;ratioP1;P1;durP2;ratioP2;P2;SDS_P1;SDS_P2;PMS_P1;PMS_P2;Temp;Humidity;BMP_temperature;BMP_pressure;BME280_temperature;BME280_humidity;BME280_pressure;Samples;Min_cycle;Max_cycle;Signal;HPM_P1;HPM_P2
2021/12/30 00:00:07;;;;;;;;;;;;;;;17.89;50.92;101099.53;5008986;28;19930;-43
2021/12/30 00:02:33;;;;;;;;;;;;;;;17.88;51.04;101092.47;5007525;28;19936;-41
2021/12/30 00:05:00;;;;;;;;;;;;;;;17.88;51.28;101102.34;5008379;28;20043;-42
2021/12/30 00:07:28;;;;;;;;;;;;;;;17.87;50.93;101106.03;5005052;28;20920;-42
2021/12/30 00:09:54;;;;;;;;;;;;;;;17.87;50.94;101106.03;5006718;28;19961;-42
2021/12/30 00:12:20;;;;;;;;;;;;;;;17.88;51.05;101107.72;5006018;28;19921;-42
2021/12/30 00:14:47;;;;;;;;;;;;;;;17.86;50.94;101102.50;5007133;28;19929;-42
2021/12/30 00:17:13;;;;;;;;;;;;;;;17.87;50.89;101122.13;5010703;28;19944;-42
2021/12/30 00:19:40;;;;;;;;;;;;;;;17.86;51.32;101117.75;5005098;28;19937;-42
2021/12/30 00:22:06;;;;;;;;;;;;;;;17.86;50.98;101104.34;5007467;28;19925;-42
2021/12/30 00:24:33;;;;;;;;;;;;;;;17.86;51.00;101101.66;5008240;28;19925;-42
2021/12/30 00:26:59;;;;;;;;;;;;;;;17.85;50.99;101106.19;5007286;28;19929;-41
2021/12/30 00:29:25;;;;;;;;;;;;;;;17.86;50.94;101109.72;5007711;28;19921;-41
2021/12/30 00:31:52;;;;;;;;;;;;;;;17.86;51.36;101107.03;5009982;28;19921;-42
2021/12/30 00:34:19;;;;;;;;;;;;;;;17.85;51.22;101089.22;5006732;28;20321;-40
2021/12/30 00:36:45;;;;;;;;;;;;;;;17.85;51.07;101089.22;5008620;28;19956;-42
2021/12/30 00:39:11;;;;;;;;;;;;;;;17.83;50.80;101096.59;5005519;28;19955;-41
2021/12/30 00:41:38;;;;;;;;;;;;;;;17.84;50.81;101095.59;5007976;28;19921;-41
2021/12/30 00:44:04;;;;;;;;;;;;;;;17.83;51.15;101101.94;5005136;28;19937;-41
2021/12/30 00:46:31;;;;;;;;;;;;;;;17.83;50.99;101102.78;5006934;28;20008;-41
2021/12/30 00:48:57;;;;;;;;;;;;;;;17.83;50.95;101104.63;5007507;28;19994;-41
2021/12/30 00:51:23;;;;;;;;;;;;;;;17.83;51.32;101112.66;5007600;28;19936;-41
2021/12/30 00:53:50;;;;;;;;;;;;;;;17.82;50.96;101111.00;5006559;28;19929;-41
2021/12/30 00:56:17;;;;;;;;;;;;;;;17.83;51.12;101104.63;5007749;28;20008;-41
2021/12/30 00:58:43;;;;;;;;;;;;;;;17.81;51.36;101120.88;5004857;28;20278;-41
2021/12/30 01:01:10;;;;;;;;;;;;;;;17.81;51.11;101128.91;5013414;28;19931;-41
2021/12/30 01:03:37;;;;;;;;;;;;;;;17.81;51.15;101131.59;5010950;28;19921;-41
2021/12/30 01:06:03;;;;;;;;;;;;;;;17.81;51.61;101136.97;5009171;28;19925;-43
2021/12/30 01:08:30;;;;;;;;;;;;;;;17.81;51.32;101136.97;5013549;28;19929;-41
2021/12/30 01:10:57;;;;;;;;;;;;;;;17.82;50.93;101132.44;5007826;28;20013;-41
2021/12/30 01:13:26;;;;;;;;;;;;;;;17.81;51.39;101133.41;5007882;28;20015;-41
2021/12/30 01:16:02;;;;;;;;;;;;;;;17.82;51.16;101137.81;5005360;28;19921;-41
2021/12/30 01:18:53;;;;;;;;;;;;;;;17.81;51.13;101123.56;5006368;28;19948;-41
2021/12/30 01:21:20;;;;;;;;;;;;;;;17.80;51.39;101127.19;5006364;28;19921;-41
2021/12/30 01:23:46;;;;;;;;;;;;;;;17.80;51.37;101131.72;5008065;28;19949;-41
2021/12/30 01:26:13;;;;;;;;;;;;;;;17.81;51.22;101125.38;5005004;28;20286;-41
2021/12/30 01:28:40;;;;;;;;;;;;;;;17.82;51.12;101135.13;5005790;28;19928;-41
2021/12/30 01:31:07;;;;;;;;;;;;;;;17.81;51.41;101133.41;5005928;28;20619;-41
2021/12/30 01:33:33;;;;;;;;;;;;;;;17.82;51.64;101135.13;5007972;28;20068;-41
2021/12/30 01:36:00;;;;;;;;;;;;;;;17.82;51.04;101140.47;5008192;28;19936;-41
2021/12/30 01:38:26;;;;;;;;;;;;;;;17.82;51.09;101145.84;5009721;28;19932;-41
2021/12/30 01:40:54;;;;;;;;;;;;;;;17.81;51.02;101155.72;5010655;28;19921;-41
2021/12/30 01:43:21;;;;;;;;;;;;;;;17.81;51.36;101155.72;5008266;28;19931;-41
2021/12/30 01:45:48;;;;;;;;;;;;;;;17.81;51.30;101157.53;5003694;28;19921;-41
2021/12/30 01:48:14;;;;;;;;;;;;;;;17.81;51.13;101149.50;5006939;28;20317;-41
2021/12/30 01:50:41;;;;;;;;;;;;;;;17.81;51.39;101158.41;5007337;28;20016;-41
2021/12/30 01:53:08;;;;;;;;;;;;;;;17.81;51.43;101170.94;5006901;28;20016;-41
2021/12/30 01:55:35;;;;;;;;;;;;;;;17.81;51.35;101173.63;5004836;28;20020;-41
2021/12/30 01:58:02;;;;;;;;;;;;;;;17.81;51.20;101169.13;5004885;28;20012;-41
2021/12/30 02:00:29;;;;;;;;;;;;;;;17.82;51.46;101165.47;5004009;28;19940;-41
2021/12/30 02:02:56;;;;;;;;;;;;;;;17.82;51.25;101169.97;5007749;28;20400;-41
2021/12/30 02:05:23;;;;;;;;;;;;;;;17.83;51.20;101182.38;5005473;28;19932;-41
2021/12/30 02:07:49;;;;;;;;;;;;;;;17.81;51.18;101170.94;5005396;28;19940;-41
2021/12/30 02:10:16;;;;;;;;;;;;;;;17.81;51.40;101171.81;5005683;28;19921;-41
2021/12/30 02:12:42;;;;;;;;;;;;;;;17.82;51.06;101167.28;5005139;28;19922;-40
2021/12/30 02:15:11;;;;;;;;;;;;;;;17.81;51.13;101155.72;5002266;28;20214;-40
2021/12/30 02:17:38;;;;;;;;;;;;;;;17.83;51.40;101152.88;5007260;28;20012;-41
2021/12/30 02:20:10;;;;;;;;;;;;;;;17.82;51.19;101160.09;5002024;28;19928;-41
2021/12/30 02:22:37;;;;;;;;;;;;;;;17.82;51.09;101151.22;5006837;28;20001;-41
2021/12/30 02:25:04;;;;;;;;;;;;;;;17.83;51.22;101144.84;5003587;28;20213;-41
2021/12/30 02:27:31;;;;;;;;;;;;;;;17.82;51.12;101151.22;5004679;28;19925;-40
2021/12/30 02:29:57;;;;;;;;;;;;;;;17.82;51.38;101153.88;5005993;28;19944;-41
2021/12/30 02:32:25;;;;;;;;;;;;;;;17.81;51.55;101162.91;5004850;28;19921;-41
2021/12/30 02:34:52;;;;;;;;;;;;;;;17.82;51.23;101169.97;5004575;28;19927;-41
2021/12/30 02:37:19;;;;;;;;;;;;;;;17.82;51.34;101164.63;5006137;28;19921;-41
2021/12/30 02:39:53;;;;;;;;;;;;;;;17.82;51.26;101159.25;5004217;28;19935;-41
2021/12/30 02:42:22;;;;;;;;;;;;;;;17.81;51.57;101161.09;5005315;28;19925;-41
2021/12/30 02:44:48;;;;;;;;;;;;;;;17.81;51.09;101165.59;5003515;28;19929;-41
2021/12/30 02:47:14;;;;;;;;;;;;;;;17.81;51.34;101166.47;5005948;28;19922;-41
2021/12/30 02:49:41;;;;;;;;;;;;;;;17.82;51.46;101175.34;5006920;28;19936;-41
2021/12/30 02:52:08;;;;;;;;;;;;;;;17.82;51.53;101173.50;5003536;28;19927;-41
2021/12/30 02:54:34;;;;;;;;;;;;;;;17.81;51.35;101173.63;5002816;28;19929;-41
2021/12/30 02:57:00;;;;;;;;;;;;;;;17.82;51.42;101181.53;5005635;28;19925;-40
2021/12/30 02:59:27;;;;;;;;;;;;;;;17.82;51.33;101192.28;5003378;28;20019;-40
2021/12/30 03:01:55;;;;;;;;;;;;;;;17.82;51.36;101181.53;5007330;28;19925;-40
2021/12/30 03:04:21;;;;;;;;;;;;;;;17.83;51.34;101191.28;5006054;28;20028;-41
2021/12/30 03:06:51;;;;;;;;;;;;;;;17.83;51.44;101193.13;5001530;28;20016;-41
2021/12/30 03:09:17;;;;;;;;;;;;;;;17.83;51.58;101198.47;5001884;28;19932;-41
2021/12/30 03:11:44;;;;;;;;;;;;;;;17.82;51.15;101191.44;5005792;28;20028;-41
2021/12/30 03:14:11;;;;;;;;;;;;;;;17.82;51.55;101191.44;5009591;28;19931;-41
2021/12/30 03:16:37;;;;;;;;;;;;;;;17.82;51.39;101194.09;5009394;28;20347;-41
2021/12/30 03:19:04;;;;;;;;;;;;;;;17.83;51.26;101195.78;5006330;28;19956;-41
2021/12/30 03:21:31;;;;;;;;;;;;;;;17.82;51.29;101194.09;5009879;28;19968;-41
2021/12/30 03:23:58;;;;;;;;;;;;;;;17.83;51.41;101195.78;5006686;28;20212;-41
2021/12/30 03:26:25;;;;;;;;;;;;;;;17.83;51.83;101187.75;5001304;28;20016;-40
2021/12/30 03:28:52;;;;;;;;;;;;;;;17.83;51.41;101188.59;5004076;28;19932;-40
2021/12/30 03:31:19;;;;;;;;;;;;;;;17.83;51.72;101182.38;5005758;28;19929;-40
2021/12/30 03:33:46;;;;;;;;;;;;;;;17.82;51.46;101170.81;5003552;28;19928;-40
2021/12/30 03:36:13;;;;;;;;;;;;;;;17.83;51.68;101171.66;5007284;28;19932;-40
2021/12/30 03:38:42;;;;;;;;;;;;;;;17.82;51.70;101176.19;5002388;28;19926;-40
2021/12/30 03:41:10;;;;;;;;;;;;;;;17.82;51.72;101186.91;5003457;28;19921;-40
2021/12/30 03:43:36;;;;;;;;;;;;;;;17.83;52.01;101185.06;5005769;28;20007;-40
2021/12/30 03:46:03;;;;;;;;;;;;;;;17.83;51.34;101185.91;5005409;28;19929;-40
2021/12/30 03:48:34;;;;;;;;;;;;;;;17.82;51.46;101178.88;5003236;28;19925;-40
2021/12/30 03:51:05;;;;;;;;;;;;;;;17.83;51.74;101171.66;5004485;28;19952;-40
2021/12/30 03:53:38;;;;;;;;;;;;;;;17.82;51.61;101183.38;5004167;28;19921;-40
2021/12/30 03:56:08;;;;;;;;;;;;;;;17.83;51.70;101187.75;5003439;28;19925;-40
2021/12/30 03:58:34;;;;;;;;;;;;;;;17.82;51.71;101197.63;5005021;28;19921;-40
2021/12/30 04:01:02;;;;;;;;;;;;;;;17.82;51.52;101200.31;5004234;28;19929;-40
2021/12/30 04:03:28;;;;;;;;;;;;;;;17.83;51.57;101203.84;5005789;28;20012;-40
2021/12/30 04:05:55;;;;;;;;;;;;;;;17.83;51.62;101210.03;5001514;28;19936;-40
2021/12/30 04:08:21;;;;;;;;;;;;;;;17.82;52.09;101200.31;5003381;28;20008;-40
2021/12/30 04:10:48;;;;;;;;;;;;;;;17.82;51.69;101204.84;5003575;28;19921;-40
2021/12/30 04:13:15;;;;;;;;;;;;;;;17.83;51.71;101211.88;5004057;28;19930;-40
2021/12/30 04:15:41;;;;;;;;;;;;;;;17.82;51.96;101212.88;5005449;28;19944;-40
2021/12/30 04:18:07;;;;;;;;;;;;;;;17.83;51.73;101206.50;5007167;28;20237;-40
2021/12/30 04:20:34;;;;;;;;;;;;;;;17.83;51.97;101206.50;5005154;28;19926;-40
2021/12/30 04:23:00;;;;;;;;;;;;;;;17.82;51.55;101202.16;5006588;28;19930;-40
2021/12/30 04:25:27;;;;;;;;;;;;;;;17.81;51.50;101201.31;5005647;28;19929;-40
2021/12/30 04:27:53;;;;;;;;;;;;;;;17.82;51.91;101196.78;5006633;28;20301;-40
2021/12/30 04:30:19;;;;;;;;;;;;;;;17.81;52.03;101187.91;5009663;28;19922;-40
2021/12/30 04:32:46;;;;;;;;;;;;;;;17.82;51.99;101188.75;5006496;28;19929;-40
2021/12/30 04:35:13;;;;;;;;;;;;;;;17.81;51.66;101192.41;5008059;28;19929;-40
2021/12/30 04:37:40;;;;;;;;;;;;;;;17.81;51.62;101190.59;5009063;28;20305;-40
2021/12/30 04:40:06;;;;;;;;;;;;;;;17.80;51.86;101196.06;5006237;28;19947;-40
2021/12/30 04:42:33;;;;;;;;;;;;;;;17.82;51.81;101202.16;5009416;28;19925;-40
2021/12/30 04:44:59;;;;;;;;;;;;;;;17.81;51.67;101198.63;5007194;28;20321;-40
2021/12/30 04:47:26;;;;;;;;;;;;;;;17.81;52.02;101195.06;5007491;28;20279;-40
2021/12/30 04:49:52;;;;;;;;;;;;;;;17.82;51.76;101191.44;5005757;28;20040;-40
2021/12/30 04:52:19;;;;;;;;;;;;;;;17.81;51.88;101192.41;5006363;28;19925;-40
2021/12/30 04:54:45;;;;;;;;;;;;;;;17.81;52.13;101197.75;5005195;28;19925;-40
2021/12/30 04:57:12;;;;;;;;;;;;;;;17.81;52.00;101197.75;5006923;28;19921;-40
2021/12/30 04:59:38;;;;;;;;;;;;;;;17.80;52.03;101198.75;5004447;28;19929;-40
2021/12/30 05:02:05;;;;;;;;;;;;;;;17.81;52.07;101192.41;5005696;28;19925;-40
2021/12/30 05:04:31;;;;;;;;;;;;;;;17.80;51.88;101199.59;5006316;28;19925;-40
2021/12/30 05:06:57;;;;;;;;;;;;;;;17.80;52.18;101202.28;5007053;28;19922;-41
2021/12/30 05:09:24;;;;;;;;;;;;;;;17.80;51.66;101199.59;5006620;28;19921;-41
2021/12/30 05:11:51;;;;;;;;;;;;;;;17.80;52.16;101202.28;5004516;28;19925;-40
2021/12/30 05:14:17;;;;;;;;;;;;;;;17.81;52.13;101195.06;5005890;28;19951;-40
2021/12/30 05:16:45;;;;;;;;;;;;;;;17.81;51.77;101192.41;5007342;28;19922;-41
2021/12/30 05:19:11;;;;;;;;;;;;;;;17.81;52.12;101192.41;5003973;28;20020;-40
2021/12/30 05:21:37;;;;;;;;;;;;;;;17.79;51.86;101197.91;5006520;28;20220;-41
2021/12/30 05:24:04;;;;;;;;;;;;;;;17.81;51.93;101197.75;5003766;28;20381;-40
2021/12/30 05:26:31;;;;;;;;;;;;;;;17.80;52.00;101196.91;5005998;28;19936;-41
2021/12/30 05:28:58;;;;;;;;;;;;;;;17.80;51.91;101196.91;5006079;28;19928;-41
2021/12/30 05:31:25;;;;;;;;;;;;;;;17.80;52.22;101196.06;5006002;28;19922;-40
2021/12/30 05:33:52;;;;;;;;;;;;;;;17.81;51.92;101192.41;5006555;28;19926;-40
2021/12/30 05:36:19;;;;;;;;;;;;;;;17.80;52.02;101209.47;5009061;28;20001;-41
2021/12/30 05:38:45;;;;;;;;;;;;;;;17.80;52.31;101214.84;5008222;28;19930;-41
2021/12/30 05:41:14;;;;;;;;;;;;;;;17.80;52.01;101196.06;5016146;28;19925;-41
2021/12/30 05:43:40;;;;;;;;;;;;;;;17.81;52.51;101205.81;5008275;28;19921;-40
2021/12/30 05:46:07;;;;;;;;;;;;;;;17.80;52.08;101206.78;5009554;28;20012;-40
2021/12/30 05:48:33;;;;;;;;;;;;;;;17.80;51.74;101196.91;5009251;28;19994;-41
2021/12/30 05:51:00;;;;;;;;;;;;;;;17.79;52.15;101200.59;5006642;28;20302;-40
2021/12/30 05:53:30;;;;;;;;;;;;;;;17.79;51.82;101205.13;5003313;28;19988;-41
2021/12/30 05:55:57;;;;;;;;;;;;;;;17.80;52.02;101204.13;5005113;28;20016;-41
2021/12/30 05:58:23;;;;;;;;;;;;;;;17.80;52.64;101196.06;5004976;28;19930;-40
2021/12/30 06:00:50;;;;;;;;;;;;;;;17.81;52.20;101201.31;5005716;28;19921;-41
2021/12/30 06:03:19;;;;;;;;;;;;;;;17.81;52.33;101205.81;5005229;28;19930;-41
2021/12/30 06:05:49;;;;;;;;;;;;;;;17.79;52.13;101195.22;5003972;28;20355;-41
2021/12/30 06:08:15;;;;;;;;;;;;;;;17.80;52.40;101196.06;5008560;28;19933;-41
2021/12/30 06:10:43;;;;;;;;;;;;;;;17.81;52.42;101205.81;5002573;28;20272;-41
2021/12/30 06:13:10;;;;;;;;;;;;;;;17.80;51.96;101218.38;5008282;28;19991;-40
2021/12/30 06:15:36;;;;;;;;;;;;;;;17.81;52.37;101216.53;5006852;28;20071;-41
2021/12/30 06:18:03;;;;;;;;;;;;;;;17.79;52.22;101213.16;5005766;28;20008;-41
2021/12/30 06:20:30;;;;;;;;;;;;;;;17.80;52.24;101237.13;5005222;28;19921;-40
2021/12/30 06:22:57;;;;;;;;;;;;;;;17.80;52.66;101234.44;5006577;28;19921;-41
2021/12/30 06:25:23;;;;;;;;;;;;;;;17.80;52.29;101234.44;5001462;28;20017;-40
2021/12/30 06:27:54;;;;;;;;;;;;;;;17.82;52.30;101245.06;5007898;28;19929;-41
2021/12/30 06:30:21;;;;;;;;;;;;;;;17.82;52.47;101243.22;5004656;28;19928;-40
2021/12/30 06:32:47;;;;;;;;;;;;;;;17.82;52.57;101242.38;5005960;28;19996;-41
2021/12/30 06:35:14;;;;;;;;;;;;;;;17.82;52.37;101245.06;5007412;28;19925;-41
2021/12/30 06:37:41;;;;;;;;;;;;;;;17.83;52.24;101244.06;5005561;28;20628;-41
2021/12/30 06:40:08;;;;;;;;;;;;;;;17.82;52.49;101248.56;5006423;28;20024;-41
2021/12/30 06:42:35;;;;;;;;;;;;;;;17.83;52.67;101261.00;5005737;28;19927;-40
2021/12/30 06:45:01;;;;;;;;;;;;;;;17.82;52.60;101255.78;5005610;28;19940;-41
2021/12/30 06:47:28;;;;;;;;;;;;;;;17.83;52.57;101249.41;5005311;28;19932;-41
2021/12/30 06:50:00;;;;;;;;;;;;;;;17.82;52.38;101253.94;5005229;28;20012;-40
2021/12/30 06:52:26;;;;;;;;;;;;;;;17.83;52.54;101260.16;5004851;28;19921;-41
2021/12/30 06:54:53;;;;;;;;;;;;;;;17.82;52.48;101256.63;5004925;28;19925;-41
2021/12/30 06:57:20;;;;;;;;;;;;;;;17.82;52.52;101264.66;5005845;28;19925;-41
2021/12/30 06:59:46;;;;;;;;;;;;;;;17.82;52.64;101258.47;5004543;28;19936;-41
2021/12/30 07:02:13;;;;;;;;;;;;;;;17.81;52.46;101260.28;5005908;28;20536;-41
2021/12/30 07:04:40;;;;;;;;;;;;;;;17.82;52.58;101269.19;5000019;28;19935;-41
2021/12/30 07:07:06;;;;;;;;;;;;;;;17.82;52.82;101259.31;5004904;28;20000;-41
2021/12/30 07:09:33;;;;;;;;;;;;;;;17.82;52.57;101267.34;5003069;28;19929;-41
2021/12/30 07:11:59;;;;;;;;;;;;;;;17.82;52.54;101272.72;5004211;28;19926;-41
2021/12/30 07:14:26;;;;;;;;;;;;;;;17.82;52.72;101255.78;5002107;28;20001;-41
2021/12/30 07:16:52;;;;;;;;;;;;;;;17.82;52.90;101266.50;5002895;28;19961;-41
2021/12/30 07:19:19;;;;;;;;;;;;;;;17.83;52.84;101260.16;5001914;28;19947;-41
2021/12/30 07:21:46;;;;;;;;;;;;;;;17.81;52.32;101256.75;5004480;28;19921;-41
2021/12/30 07:24:13;;;;;;;;;;;;;;;17.82;52.88;101271.88;5003658;28;20531;-40
2021/12/30 07:26:39;;;;;;;;;;;;;;;17.82;52.67;101271.88;5000932;28;19922;-41
2021/12/30 07:29:05;;;;;;;;;;;;;;;17.82;52.75;101266.50;5002398;28;19929;-41
2021/12/30 07:31:32;;;;;;;;;;;;;;;17.81;52.72;101279.06;5002772;28;19922;-41
2021/12/30 07:33:59;;;;;;;;;;;;;;;17.82;52.79;101282.59;5002991;28;20012;-40
2021/12/30 07:36:25;;;;;;;;;;;;;;;17.82;53.04;101280.75;5004911;28;19927;-40
2021/12/30 07:38:51;;;;;;;;;;;;;;;17.83;53.62;101290.47;5007114;28;19921;-41
2021/12/30 07:41:18;;;;;;;;;;;;;;;17.82;52.79;101302.19;5004444;28;20049;-41
2021/12/30 07:43:44;;;;;;;;;;;;;;;17.82;52.96;101304.03;5004759;28;19931;-41
2021/12/30 07:46:11;;;;;;;;;;;;;;;17.82;52.86;101309.41;5007479;28;20020;-41
2021/12/30 07:48:38;;;;;;;;;;;;;;;17.81;52.80;101310.38;5002976;28;19921;-41
2021/12/30 07:51:04;;;;;;;;;;;;;;;17.82;52.85;101320.13;5002155;28;19956;-40
2021/12/30 07:53:31;;;;;;;;;;;;;;;17.81;53.05;101327.34;5007047;28;20007;-41
2021/12/30 07:55:57;;;;;;;;;;;;;;;17.82;52.75;101322.81;5005261;28;19936;-40
2021/12/30 07:58:23;;;;;;;;;;;;;;;17.81;52.76;101321.97;5007504;28;19921;-41
2021/12/30 08:00:50;;;;;;;;;;;;;;;17.82;52.82;101325.50;5006949;28;20032;-41
2021/12/30 08:03:16;;;;;;;;;;;;;;;17.83;53.14;101335.22;5005756;28;19925;-40
2021/12/30 08:05:44;;;;;;;;;;;;;;;17.83;52.93;101324.50;5005915;28;20416;-41
2021/12/30 08:08:11;;;;;;;;;;;;;;;17.81;52.68;101324.66;5007374;28;20008;-41
2021/12/30 08:10:37;;;;;;;;;;;;;;;17.82;52.81;101323.66;5002582;28;19940;-40
2021/12/30 08:13:04;;;;;;;;;;;;;;;17.82;52.87;101322.81;5004729;28;19926;-41
2021/12/30 08:15:30;;;;;;;;;;;;;;;17.82;52.94;101336.22;5005133;28;19944;-40
2021/12/30 08:17:57;;;;;;;;;;;;;;;17.82;52.96;101331.69;5002230;28;20519;-41
2021/12/30 08:20:24;;;;;;;;;;;;;;;17.82;52.62;101329.03;5006803;28;20012;-41
2021/12/30 08:22:51;;;;;;;;;;;;;;;17.83;53.14;101332.53;5004684;28;19921;-40
2021/12/30 08:25:18;;;;;;;;;;;;;;;17.82;52.70;101337.06;5004751;28;19921;-40
2021/12/30 08:27:45;;;;;;;;;;;;;;;17.83;53.15;101337.91;5006606;28;19925;-41
2021/12/30 08:30:13;;;;;;;;;;;;;;;17.82;52.92;101331.69;5009875;28;19925;-40
2021/12/30 08:32:40;;;;;;;;;;;;;;;17.82;52.78;101328.19;5007391;28;19935;-41
2021/12/30 08:35:07;;;;;;;;;;;;;;;17.81;52.65;101332.69;5003580;28;19936;-40
2021/12/30 08:37:34;;;;;;;;;;;;;;;17.82;52.79;101355.00;5005747;28;19921;-41
2021/12/30 08:40:04;;;;;;;;;;;;;;;17.82;52.74;101345.09;5004080;28;20237;-41
2021/12/30 08:42:30;;;;;;;;;;;;;;;17.81;52.90;101348.78;5007333;28;19928;-41
2021/12/30 08:44:58;;;;;;;;;;;;;;;17.82;52.89;101339.75;5008842;28;20196;-41
2021/12/30 08:47:25;;;;;;;;;;;;;;;17.80;53.00;101344.38;5005812;28;20004;-41
2021/12/30 08:49:53;;;;;;;;;;;;;;;17.82;53.21;101363.88;5004641;28;19921;-40
2021/12/30 08:52:21;;;;;;;;;;;;;;;17.81;52.79;101342.53;5008704;28;20676;-41
2021/12/30 08:54:48;;;;;;;;;;;;;;;17.82;52.72;101347.78;5003552;28;20343;-41
2021/12/30 08:57:15;;;;;;;;;;;;;;;17.82;53.44;101353.16;5003431;28;19925;-41
2021/12/30 08:59:42;;;;;;;;;;;;;;;17.82;53.10;101344.25;5005990;28;20012;-40
2021/12/30 09:02:10;;;;;;;;;;;;;;;17.82;52.85;101363.88;5007551;28;19921;-41
2021/12/30 09:04:36;;;;;;;;;;;;;;;17.82;52.98;101355.84;5003804;28;20488;-41
2021/12/30 09:07:03;;;;;;;;;;;;;;;17.83;52.96;101373.59;5007091;28;20011;-41
2021/12/30 09:09:30;;;;;;;;;;;;;;;17.82;53.13;101358.50;5010751;28;19930;-41
2021/12/30 09:11:56;;;;;;;;;;;;;;;17.82;52.65;101377.28;5012696;28;20019;-41
2021/12/30 09:14:23;;;;;;;;;;;;;;;17.83;53.05;101372.75;5004348;28;19930;-41
2021/12/30 09:16:49;;;;;;;;;;;;;;;17.84;52.83;101363.72;5012027;28;20008;-41
2021/12/30 09:19:16;;;;;;;;;;;;;;;17.83;53.12;101373.59;5005421;28;20224;-40
2021/12/30 09:21:48;;;;;;;;;;;;;;;17.85;52.87;101386.88;5003699;28;20257;-41
2021/12/30 09:24:14;;;;;;;;;;;;;;;17.85;52.92;101381.50;5004552;28;19931;-41
2021/12/30 09:26:41;;;;;;;;;;;;;;;17.85;52.68;101385.06;5010447;28;19921;-41
2021/12/30 09:29:10;;;;;;;;;;;;;;;17.87;53.24;101398.31;5006174;28;20331;-41
2021/12/30 09:31:41;;;;;;;;;;;;;;;17.87;53.21;101390.28;5004667;28;20365;-40
2021/12/30 09:34:08;;;;;;;;;;;;;;;17.86;53.17;101410.88;5007315;28;19965;-41
2021/12/30 09:36:36;;;;;;;;;;;;;;;17.87;52.82;101398.31;5004168;28;19925;-40
2021/12/30 09:39:12;;;;;;;;;;;;;;;17.87;52.87;101398.31;5003433;28;19936;-41
2021/12/30 09:41:40;;;;;;;;;;;;;;;17.87;53.02;101415.25;5004317;28;20288;-41
2021/12/30 09:44:08;;;;;;;;;;;;;;;17.88;52.78;101426.81;5005139;28;19933;-41
2021/12/30 09:46:35;;;;;;;;;;;;;;;17.88;53.14;101421.44;5006821;28;19921;-41
2021/12/30 09:49:05;;;;;;;;;;;;;;;17.88;53.39;101421.44;5007981;28;20621;-41
2021/12/30 09:51:32;;;;;;;;;;;;;;;17.89;52.99;101425.81;5006837;28;20017;-41
2021/12/30 09:54:00;;;;;;;;;;;;;;;17.90;53.40;101440.94;5004927;28;20039;-41
2021/12/30 09:56:28;;;;;;;;;;;;;;;17.90;53.65;101432.91;5003274;28;20024;-41
2021/12/30 09:58:54;;;;;;;;;;;;;;;17.90;53.45;101433.75;5006043;28;20001;-41
2021/12/30 10:01:21;;;;;;;;;;;;;;;17.91;53.26;101450.69;5005493;28;20595;-41
2021/12/30 10:03:48;;;;;;;;;;;;;;;17.90;53.40;101427.53;5006284;28;19929;-41
2021/12/30 10:06:16;;;;;;;;;;;;;;;17.91;53.15;101431.91;5006105;28;19925;-41
2021/12/30 10:08:52;;;;;;;;;;;;;;;17.91;53.46;101435.44;5003407;28;21076;-40
2021/12/30 10:11:19;;;;;;;;;;;;;;;17.91;53.16;101435.44;5006337;28;19921;-41
2021/12/30 10:13:49;;;;;;;;;;;;;;;17.90;53.44;101439.13;5004344;28;19951;-41
2021/12/30 10:16:16;;;;;;;;;;;;;;;17.92;53.54;101441.66;5001590;28;19922;-41
2021/12/30 10:18:42;;;;;;;;;;;;;;;17.92;53.42;101455.06;5004193;28;19926;-41
2021/12/30 10:21:13;;;;;;;;;;;;;;;17.92;53.37;101437.13;5006440;28;20210;-41
2021/12/30 10:23:44;;;;;;;;;;;;;;;17.93;53.37;101446.00;5012254;28;19921;-41
2021/12/30 10:26:11;;;;;;;;;;;;;;;17.93;53.36;101446.00;5004536;28;19939;-41
2021/12/30 10:28:40;;;;;;;;;;;;;;;17.93;53.52;101449.56;5006952;28;19979;-41
2021/12/30 10:31:12;;;;;;;;;;;;;;;17.93;53.41;101443.34;5009238;28;20216;-41
2021/12/30 10:33:50;;;;;;;;;;;;;;;17.93;53.52;101433.47;5007409;28;19922;-41
2021/12/30 10:36:30;;;;;;;;;;;;;;;17.93;53.24;101438.84;5005294;28;20016;-41
2021/12/30 10:39:15;;;;;;;;;;;;;;;17.93;53.39;101454.06;5009855;28;19940;-41
2021/12/30 10:41:42;;;;;;;;;;;;;;;17.93;53.40;101459.44;5005157;28;19925;-41
2021/12/30 10:44:09;;;;;;;;;;;;;;;17.94;53.12;101470.03;5003779;28;19930;-41
2021/12/30 10:46:35;;;;;;;;;;;;;;;17.96;53.36;101473.41;5005157;28;20451;-41
2021/12/30 10:49:03;;;;;;;;;;;;;;;17.94;53.53;101467.34;5002745;28;19933;-40
2021/12/30 10:51:38;;;;;;;;;;;;;;;17.96;53.35;101469.88;5003089;28;19957;-41
2021/12/30 10:54:21;;;;;;;;;;;;;;;17.95;53.39;101466.34;5004987;28;20095;-40
2021/12/30 10:56:59;;;;;;;;;;;;;;;17.96;53.46;101467.19;5001132;28;19921;-41
2021/12/30 10:59:27;;;;;;;;;;;;;;;17.96;53.28;101473.41;5000701;28;19951;-41
2021/12/30 11:01:56;;;;;;;;;;;;;;;17.96;53.59;101465.38;5005399;28;19921;-41
2021/12/30 11:04:31;;;;;;;;;;;;;;;17.96;53.35;101481.47;5000995;28;19929;-41
2021/12/30 11:06:58;;;;;;;;;;;;;;;17.97;53.29;101480.50;5002903;28;20305;-41
2021/12/30 11:09:24;;;;;;;;;;;;;;;17.97;53.73;101493.91;5000973;28;20025;-41
2021/12/30 11:11:53;;;;;;;;;;;;;;;17.98;53.59;101492.06;5004315;28;20028;-41
2021/12/30 11:14:21;;;;;;;;;;;;;;;17.97;53.13;101491.22;5003044;28;20020;-41
2021/12/30 11:16:59;;;;;;;;;;;;;;;17.98;53.50;101494.75;5003389;28;20004;-40
2021/12/30 11:19:28;;;;;;;;;;;;;;;17.97;53.22;101482.34;4999838;28;19921;-41
2021/12/30 11:21:57;;;;;;;;;;;;;;;17.98;53.56;101489.38;5005865;28;20303;-40
2021/12/30 11:24:27;;;;;;;;;;;;;;;17.98;53.47;101494.75;5000834;28;19930;-41
2021/12/30 11:26:54;;;;;;;;;;;;;;;17.98;53.38;101502.78;5002901;28;19921;-41
2021/12/30 11:29:21;;;;;;;;;;;;;;;17.98;53.55;101489.38;5008382;28;20344;-41
2021/12/30 11:31:48;;;;;;;;;;;;;;;17.98;53.35;101486.69;5008236;28;19955;-41
2021/12/30 11:34:15;;;;;;;;;;;;;;;17.98;53.56;101484.03;5007427;28;19929;-41
2021/12/30 11:36:41;;;;;;;;;;;;;;;17.97;53.01;101493.06;5007703;28;19929;-41
2021/12/30 11:39:15;;;;;;;;;;;;;;;17.96;53.11;101489.50;5005106;28;19937;-40
2021/12/30 11:41:43;;;;;;;;;;;;;;;17.98;53.25;101492.06;5006297;28;19931;-41
2021/12/30 11:44:29;;;;;;;;;;;;;;;17.97;53.59;101493.06;5010656;28;19955;-41
2021/12/30 11:46:56;;;;;;;;;;;;;;;17.99;52.88;101485.72;5010402;28;19925;-41
2021/12/30 11:49:22;;;;;;;;;;;;;;;17.98;53.38;101489.38;5010915;28;19921;-41
2021/12/30 11:51:51;;;;;;;;;;;;;;;17.97;53.32;101490.38;5008168;28;20538;-41
2021/12/30 11:54:33;;;;;;;;;;;;;;;17.97;53.39;101485.84;5008444;28;20393;-41
2021/12/30 11:57:23;;;;;;;;;;;;;;;17.97;53.21;101472.44;5008432;28;19921;-41
2021/12/30 11:59:49;;;;;;;;;;;;;;;17.96;53.21;101460.00;5006785;28;19928;-40
2021/12/30 12:02:45;;;;;;;;;;;;;;;17.97;53.24;101480.50;5007082;28;19936;-41
2021/12/30 12:05:30;;;;;;;;;;;;;;;17.98;53.55;101465.25;5002808;28;20014;-41
2021/12/30 12:08:07;;;;;;;;;;;;;;;18.00;53.46;101465.94;5006383;28;19955;-41
2021/12/30 12:10:34;;;;;;;;;;;;;;;18.06;53.68;101467.25;5001868;28;19929;-41
2021/12/30 12:13:19;;;;;;;;;;;;;;;18.12;53.12;101459.47;5005189;28;20015;-41
2021/12/30 12:15:45;;;;;;;;;;;;;;;18.20;53.06;101464.97;5005530;28;19925;-41
2021/12/30 12:18:12;;;;;;;;;;;;;;;18.28;53.66;101474.16;5008938;28;19921;-41
2021/12/30 12:20:49;;;;;;;;;;;;;;;18.36;53.17;101475.16;5004177;28;19929;-41
2021/12/30 12:23:34;;;;;;;;;;;;;;;18.45;53.06;101486.88;5007848;28;20293;-41
2021/12/30 12:26:04;;;;;;;;;;;;;;;18.53;53.28;101484.34;5008403;28;19928;-42
2021/12/30 12:28:30;;;;;;;;;;;;;;;18.61;52.83;101468.38;5006544;28;20048;-41
2021/12/30 12:31:03;;;;;;;;;;;;;;;18.69;53.07;101484.66;5009532;28;19931;-41
2021/12/30 12:33:33;;;;;;;;;;;;;;;18.77;52.72;101472.34;5007437;28;19932;-42
2021/12/30 12:36:02;;;;;;;;;;;;;;;18.83;52.89;101475.31;5003227;28;19926;-42
2021/12/30 12:38:36;;;;;;;;;;;;;;;18.90;52.96;101470.25;4999849;28;20551;-41